Time;durP1;ratioP1;P1;durP2;ratioP2;P2;SDS_P1;SDS_P2;PMS_P1;PMS_P2;Temp;Humidity;BMP_temperature;BMP_pressure;BME280_temperature;BME280_humidity;BME280_pressure;Samples;Min_cycle;Max_cycle;Signal;HPM_P1;HPM_P2
2021/09/08 00:00:50;;;;;;;;;;;;;;;;;;2081986;28;19925;-55
2021/09/08 00:01:51;;;;;;;;;;;;;;;;;;2087062;28;20306;-55
2021/09/08 00:02:52;;;;;;;;;;;;;;;;;;2090227;28;19920;-55
2021/09/08 00:03:53;;;;;;;;;;;;;;;;;;2090469;28;19956;-55
2021/09/08 00:04:54;;;;;;;;;;;;;;;;;;2087702;28;19927;-55
2021/09/08 00:05:55;;;;;;;;;;;;;;;;;;2081968;28;19960;-55
2021/09/08 00:06:56;;;;;;;;;;;;;;;;;;2082117;28;19928;-55
2021/09/08 00:07:57;;;;;;;;;;;;;;;;;;2088083;28;19928;-55
2021/09/08 00:08:57;;;;;;;;;;;;;;;;;;2090334;28;19983;-54
2021/09/08 00:09:58;;;;;;;;;;;;;;;;;;2089720;28;19970;-55
2021/09/08 00:10:59;;;;;;;;;;;;;;;;;;2086785;28;19920;-55
2021/09/08 00:12:00;;;;;;;;;;;;;;;;;;2082051;28;19944;-55
2021/09/08 00:13:00;;;;;;;;;;;;;;;;;;2083099;28;19943;-55
2021/09/08 00:14:01;;;;;;;;;;;;;;;;;;2087730;28;20119;-55
2021/09/08 00:15:02;;;;;;;;;;;;;;;;;;2090082;28;19925;-55
2021/09/08 00:16:03;;;;;;;;;;;;;;;;;;2089472;28;19920;-55
2021/09/08 00:17:04;;;;;;;;;;;;;;;;;;2083739;28;19921;-56
2021/09/08 00:18:05;;;;;;;;;;;;;;;;;;2082036;28;19925;-55
2021/09/08 00:19:06;;;;;;;;;;;;;;;;;;2085640;28;20328;-55
2021/09/08 00:20:07;;;;;;;;;;;;;;;;;;2089325;28;20259;-55
2021/09/08 00:21:07;;;;;;;;;;;;;;;;;;2090123;28;19931;-55
2021/09/08 00:22:08;;;;;;;;;;;;;;;;;;2088370;28;19970;-55
2021/09/08 00:23:09;;;;;;;;;;;;;;;;;;2089033;28;19921;-55
2021/09/08 00:24:10;;;;;;;;;;;;;;;;;;2090117;28;19920;-54
2021/09/08 00:25:10;;;;;;;;;;;;;;;;;;2087916;28;19920;-55
2021/09/08 00:26:12;;;;;;;;;;;;;;;;;;2089908;28;19967;-55
2021/09/08 00:27:12;;;;;;;;;;;;;;;;;;2090263;28;19925;-55
2021/09/08 00:28:13;;;;;;;;;;;;;;;;;;2086901;28;19924;-55
2021/09/08 00:29:14;;;;;;;;;;;;;;;;;;2089856;28;19947;-55
2021/09/08 00:30:15;;;;;;;;;;;;;;;;;;2090072;28;19945;-55
2021/09/08 00:31:15;;;;;;;;;;;;;;;;;;2088272;28;19929;-55
2021/09/08 00:32:16;;;;;;;;;;;;;;;;;;2081892;28;19925;-55
2021/09/08 00:33:17;;;;;;;;;;;;;;;;;;2081803;28;19925;-55
2021/09/08 00:34:18;;;;;;;;;;;;;;;;;;2087445;28;19928;-55
2021/09/08 00:35:19;;;;;;;;;;;;;;;;;;2089921;28;19924;-55
2021/09/08 00:36:20;;;;;;;;;;;;;;;;;;2089596;28;20389;-55
2021/09/08 00:37:20;;;;;;;;;;;;;;;;;;2087257;28;19928;-55
2021/09/08 00:38:21;;;;;;;;;;;;;;;;;;2081917;28;19921;-55
2021/09/08 00:39:22;;;;;;;;;;;;;;;;;;2082402;28;19971;-55
2021/09/08 00:40:23;;;;;;;;;;;;;;;;;;2088070;28;19920;-55
2021/09/08 00:41:24;;;;;;;;;;;;;;;;;;2090037;28;20055;-55
2021/09/08 00:42:25;;;;;;;;;;;;;;;;;;2089460;28;19975;-55
2021/09/08 00:43:26;;;;;;;;;;;;;;;;;;2088285;28;20003;-55
2021/09/08 00:44:27;;;;;;;;;;;;;;;;;;2089955;28;19932;-55
2021/09/08 00:45:28;;;;;;;;;;;;;;;;;;2089284;28;19925;-55
2021/09/08 00:46:29;;;;;;;;;;;;;;;;;;2088168;28;19943;-55
2021/09/08 00:47:30;;;;;;;;;;;;;;;;;;2090170;28;20370;-55
2021/09/08 00:48:30;;;;;;;;;;;;;;;;;;2089315;28;20324;-55
2021/09/08 00:49:31;;;;;;;;;;;;;;;;;;2088568;28;20381;-55
2021/09/08 00:50:32;;;;;;;;;;;;;;;;;;2087086;28;19927;-55
2021/09/08 00:51:33;;;;;;;;;;;;;;;;;;2084476;28;20018;-55
2021/09/08 00:52:34;;;;;;;;;;;;;;;;;;2088501;28;20358;-55
2021/09/08 00:53:35;;;;;;;;;;;;;;;;;;2090099;28;19963;-55
2021/09/08 00:54:35;;;;;;;;;;;;;;;;;;2089107;28;19981;-55
2021/09/08 00:55:36;;;;;;;;;;;;;;;;;;2088324;28;19929;-55
2021/09/08 00:56:37;;;;;;;;;;;;;;;;;;2089927;28;19927;-55
2021/09/08 00:57:38;;;;;;;;;;;;;;;;;;2088761;28;19970;-55
2021/09/08 00:58:38;;;;;;;;;;;;;;;;;;2088890;28;19920;-55
2021/09/08 00:59:39;;;;;;;;;;;;;;;;;;2089889;28;20357;-55
2021/09/08 01:00:40;;;;;;;;;;;;;;;;;;2088209;28;19925;-55
2021/09/08 01:01:41;;;;;;;;;;;;;;;;;;2089446;28;19928;-55
2021/09/08 01:02:42;;;;;;;;;;;;;;;;;;2089979;28;19948;-54
2021/09/08 01:03:43;;;;;;;;;;;;;;;;;;2088879;28;19921;-46
2021/09/08 01:04:45;;;;;;;;;;;;;;;;;;2082201;28;19928;-46
2021/09/08 01:05:46;;;;;;;;;;;;;;;;;;2081588;28;20422;-45
2021/09/08 01:06:47;;;;;;;;;;;;;;;;;;2085301;28;20008;-45
2021/09/08 01:07:48;;;;;;;;;;;;;;;;;;2081725;28;19925;-46
2021/09/08 01:08:49;;;;;;;;;;;;;;;;;;2082451;28;19921;-45
2021/09/08 01:09:49;;;;;;;;;;;;;;;;;;2087081;28;20053;-45
2021/09/08 01:10:50;;;;;;;;;;;;;;;;;;2089780;28;19967;-45
2021/09/08 01:11:51;;;;;;;;;;;;;;;;;;2089355;28;20293;-45
2021/09/08 01:12:52;;;;;;;;;;;;;;;;;;2087913;28;20003;-46
2021/09/08 01:13:53;;;;;;;;;;;;;;;;;;2089948;28;20001;-46
2021/09/08 01:14:53;;;;;;;;;;;;;;;;;;2089048;28;19921;-45
2021/09/08 01:15:54;;;;;;;;;;;;;;;;;;2085248;28;19920;-45
2021/09/08 01:16:55;;;;;;;;;;;;;;;;;;2081711;28;20380;-46
2021/09/08 01:17:56;;;;;;;;;;;;;;;;;;2083846;28;19920;-45
2021/09/08 01:18:57;;;;;;;;;;;;;;;;;;2084709;28;19970;-46
2021/09/08 01:19:58;;;;;;;;;;;;;;;;;;2081461;28;19925;-45
2021/09/08 01:20:58;;;;;;;;;;;;;;;;;;2084253;28;19921;-45
2021/09/08 01:21:59;;;;;;;;;;;;;;;;;;2088399;28;19956;-45
2021/09/08 01:23:01;;;;;;;;;;;;;;;;;;2089918;28;19920;-45
2021/09/08 01:24:02;;;;;;;;;;;;;;;;;;2088843;28;20008;-46
2021/09/08 01:25:03;;;;;;;;;;;;;;;;;;2088330;28;19931;-45
2021/09/08 01:26:04;;;;;;;;;;;;;;;;;;2089671;28;20377;-45
2021/09/08 01:27:05;;;;;;;;;;;;;;;;;;2088169;28;19925;-45
2021/09/08 01:28:05;;;;;;;;;;;;;;;;;;2088358;28;19928;-45
2021/09/08 01:29:06;;;;;;;;;;;;;;;;;;2089731;28;19971;-45
2021/09/08 01:30:07;;;;;;;;;;;;;;;;;;2088367;28;19931;-45
2021/09/08 01:31:08;;;;;;;;;;;;;;;;;;2088568;28;19971;-46
2021/09/08 01:32:09;;;;;;;;;;;;;;;;;;2089863;28;19920;-45
2021/09/08 01:33:09;;;;;;;;;;;;;;;;;;2087544;28;20011;-45
2021/09/08 01:34:10;;;;;;;;;;;;;;;;;;2089692;28;19999;-45
2021/09/08 01:35:11;;;;;;;;;;;;;;;;;;2089708;28;19921;-45
2021/09/08 01:36:12;;;;;;;;;;;;;;;;;;2087348;28;19921;-45
2021/09/08 01:37:13;;;;;;;;;;;;;;;;;;2089765;28;19921;-45
2021/09/08 01:38:14;;;;;;;;;;;;;;;;;;2089575;28;19921;-45
2021/09/08 01:39:18;;;;;;;;;;;;;;;;;;2085686;28;19921;-45
2021/09/08 01:40:19;;;;;;;;;;;;;;;;;;2081239;28;19968;-46
2021/09/08 01:41:20;;;;;;;;;;;;;;;;;;2083256;28;20016;-46
2021/09/08 01:42:21;;;;;;;;;;;;;;;;;;2085196;28;20302;-45
2021/09/08 01:43:22;;;;;;;;;;;;;;;;;;2081510;28;19928;-45
2021/09/08 01:44:23;;;;;;;;;;;;;;;;;;2083721;28;19928;-45
2021/09/08 01:45:23;;;;;;;;;;;;;;;;;;2088176;28;19921;-45
2021/09/08 01:46:24;;;;;;;;;;;;;;;;;;2089654;28;20328;-45
2021/09/08 01:47:25;;;;;;;;;;;;;;;;;;2088673;28;19982;-45
2021/09/08 01:48:26;;;;;;;;;;;;;;;;;;2088351;28;19920;-45
2021/09/08 01:49:27;;;;;;;;;;;;;;;;;;2089646;28;20294;-45
2021/09/08 01:50:27;;;;;;;;;;;;;;;;;;2086464;28;19928;-45
2021/09/08 01:51:28;;;;;;;;;;;;;;;;;;2083277;28;19932;-46
2021/09/08 01:52:29;;;;;;;;;;;;;;;;;;2081387;28;19921;-45
2021/09/08 01:53:31;;;;;;;;;;;;;;;;;;2084969;28;19924;-45
2021/09/08 01:54:32;;;;;;;;;;;;;;;;;;2088963;28;20007;-45
2021/09/08 01:55:32;;;;;;;;;;;;;;;;;;2089452;28;19921;-45
2021/09/08 01:56:35;;;;;;;;;;;;;;;;;;2087278;28;20385;-45
2021/09/08 01:57:35;;;;;;;;;;;;;;;;;;2081324;28;19921;-45
2021/09/08 01:58:36;;;;;;;;;;;;;;;;;;2081339;28;19921;-45
2021/09/08 01:59:37;;;;;;;;;;;;;;;;;;2087768;28;19921;-45
2021/09/08 02:00:38;;;;;;;;;;;;;;;;;;2089458;28;19925;-45
2021/09/08 02:01:39;;;;;;;;;;;;;;;;;;2089078;28;19928;-45
2021/09/08 02:02:40;;;;;;;;;;;;;;;;;;2087639;28;19924;-45
2021/09/08 02:03:41;;;;;;;;;;;;;;;;;;2089697;28;19921;-45
2021/09/08 02:04:42;;;;;;;;;;;;;;;;;;2089078;28;19968;-45
2021/09/08 02:05:42;;;;;;;;;;;;;;;;;;2085603;28;19925;-45
2021/09/08 02:06:43;;;;;;;;;;;;;;;;;;2081339;28;19925;-45
2021/09/08 02:07:44;;;;;;;;;;;;;;;;;;2083096;28;19947;-45
2021/09/08 02:08:45;;;;;;;;;;;;;;;;;;2085114;28;19921;-45
2021/09/08 02:09:46;;;;;;;;;;;;;;;;;;2081230;28;19925;-45
2021/09/08 02:10:47;;;;;;;;;;;;;;;;;;2083476;28;19956;-45
2021/09/08 02:11:47;;;;;;;;;;;;;;;;;;2082770;28;20345;-45
2021/09/08 02:12:48;;;;;;;;;;;;;;;;;;2081182;28;19929;-45
2021/09/08 02:13:49;;;;;;;;;;;;;;;;;;2084820;28;19928;-45
2021/09/08 02:14:50;;;;;;;;;;;;;;;;;;2088324;28;19960;-45
2021/09/08 02:15:51;;;;;;;;;;;;;;;;;;2089351;28;19920;-45
2021/09/08 02:16:52;;;;;;;;;;;;;;;;;;2086766;28;19932;-45
2021/09/08 02:17:53;;;;;;;;;;;;;;;;;;2089053;28;19921;-45
2021/09/08 02:18:54;;;;;;;;;;;;;;;;;;2089452;28;19925;-44
2021/09/08 02:19:55;;;;;;;;;;;;;;;;;;2088041;28;20015;-44
2021/09/08 02:20:55;;;;;;;;;;;;;;;;;;2081078;28;19921;-45
2021/09/08 02:21:56;;;;;;;;;;;;;;;;;;2081377;28;19921;-45
2021/09/08 02:22:57;;;;;;;;;;;;;;;;;;2086579;28;20323;-45
2021/09/08 02:23:58;;;;;;;;;;;;;;;;;;2089518;28;19924;-45
2021/09/08 02:24:58;;;;;;;;;;;;;;;;;;2089449;28;19920;-45
2021/09/08 02:25:59;;;;;;;;;;;;;;;;;;2086974;28;19975;-45
2021/09/08 02:27:00;;;;;;;;;;;;;;;;;;2081265;28;19921;-45
2021/09/08 02:28:02;;;;;;;;;;;;;;;;;;2081254;28;19925;-45
2021/09/08 02:29:02;;;;;;;;;;;;;;;;;;2087455;28;20035;-45
2021/09/08 02:30:03;;;;;;;;;;;;;;;;;;2089343;28;19928;-45
2021/09/08 02:31:04;;;;;;;;;;;;;;;;;;2088879;28;19920;-45
2021/09/08 02:32:05;;;;;;;;;;;;;;;;;;2087495;28;19924;-45
2021/09/08 02:33:05;;;;;;;;;;;;;;;;;;2089435;28;19920;-45
2021/09/08 02:34:06;;;;;;;;;;;;;;;;;;2088922;28;20278;-45
2021/09/08 02:35:07;;;;;;;;;;;;;;;;;;2087655;28;19931;-45
2021/09/08 02:36:09;;;;;;;;;;;;;;;;;;2089408;28;19966;-45
2021/09/08 02:37:09;;;;;;;;;;;;;;;;;;2088752;28;19921;-45
2021/09/08 02:38:10;;;;;;;;;;;;;;;;;;2083083;28;19921;-45
2021/09/08 02:39:11;;;;;;;;;;;;;;;;;;2081083;28;20049;-45
2021/09/08 02:40:12;;;;;;;;;;;;;;;;;;2084799;28;19929;-45
2021/09/08 02:41:13;;;;;;;;;;;;;;;;;;2087919;28;19921;-45
2021/09/08 02:42:13;;;;;;;;;;;;;;;;;;2089341;28;19921;-45
2021/09/08 02:43:14;;;;;;;;;;;;;;;;;;2087108;28;19920;-44
2021/09/08 02:44:15;;;;;;;;;;;;;;;;;;2089314;28;20282;-45
2021/09/08 02:45:16;;;;;;;;;;;;;;;;;;2089266;28;19924;-45
2021/09/08 02:46:17;;;;;;;;;;;;;;;;;;2087284;28;19951;-49
2021/09/08 02:47:17;;;;;;;;;;;;;;;;;;2089316;28;19931;-45
2021/09/08 02:48:18;;;;;;;;;;;;;;;;;;2089359;28;19921;-45
2021/09/08 02:49:19;;;;;;;;;;;;;;;;;;2087128;28;19924;-45
2021/09/08 02:50:20;;;;;;;;;;;;;;;;;;2089195;28;19975;-45
2021/09/08 02:51:21;;;;;;;;;;;;;;;;;;2079905;28;19944;-45
2021/09/08 02:52:22;;;;;;;;;;;;;;;;;;2088030;28;19991;-46
2021/09/08 02:53:22;;;;;;;;;;;;;;;;;;2082503;28;19967;-45
2021/09/08 02:54:23;;;;;;;;;;;;;;;;;;2082418;28;19921;-45
2021/09/08 02:55:24;;;;;;;;;;;;;;;;;;2086493;28;19928;-45
2021/09/08 02:56:25;;;;;;;;;;;;;;;;;;2082475;28;20263;-45
2021/09/08 02:57:25;;;;;;;;;;;;;;;;;;2082723;28;19928;-45
2021/09/08 02:58:26;;;;;;;;;;;;;;;;;;2087773;28;19924;-45
2021/09/08 02:59:27;;;;;;;;;;;;;;;;;;2082540;28;19921;-45
2021/09/08 03:00:28;;;;;;;;;;;;;;;;;;2083183;28;19987;-45
2021/09/08 03:01:29;;;;;;;;;;;;;;;;;;2087105;28;19927;-45
2021/09/08 03:02:30;;;;;;;;;;;;;;;;;;2082405;28;19927;-45
2021/09/08 03:03:31;;;;;;;;;;;;;;;;;;2083725;28;19921;-45
2021/09/08 03:04:34;;;;;;;;;;;;;;;;;;2086600;28;19928;-45
2021/09/08 03:05:35;;;;;;;;;;;;;;;;;;2082228;28;20397;-45
2021/09/08 03:06:36;;;;;;;;;;;;;;;;;;2084504;28;19929;-45
2021/09/08 03:07:37;;;;;;;;;;;;;;;;;;2089071;28;19962;-45
2021/09/08 03:08:37;;;;;;;;;;;;;;;;;;2090646;28;20409;-45
2021/09/08 03:09:38;;;;;;;;;;;;;;;;;;2089974;28;19920;-46
2021/09/08 03:10:40;;;;;;;;;;;;;;;;;;2083450;28;19925;-45
2021/09/08 03:11:40;;;;;;;;;;;;;;;;;;2082338;28;20462;-45
2021/09/08 03:12:41;;;;;;;;;;;;;;;;;;2086287;28;20015;-45
2021/09/08 03:13:42;;;;;;;;;;;;;;;;;;2090428;28;19931;-45
2021/09/08 03:14:43;;;;;;;;;;;;;;;;;;2090483;28;19921;-45
2021/09/08 03:15:44;;;;;;;;;;;;;;;;;;2087301;28;20384;-45
2021/09/08 03:16:45;;;;;;;;;;;;;;;;;;2082409;28;19921;-45
2021/09/08 03:17:45;;;;;;;;;;;;;;;;;;2083331;28;19920;-45
2021/09/08 03:18:46;;;;;;;;;;;;;;;;;;2087693;28;20340;-45
2021/09/08 03:19:47;;;;;;;;;;;;;;;;;;2090567;28;20137;-45
2021/09/08 03:20:48;;;;;;;;;;;;;;;;;;2090092;28;19956;-45
2021/09/08 03:21:48;;;;;;;;;;;;;;;;;;2086423;28;19921;-45
2021/09/08 03:22:49;;;;;;;;;;;;;;;;;;2082311;28;19921;-45
2021/09/08 03:23:50;;;;;;;;;;;;;;;;;;2084002;28;19927;-45
2021/09/08 03:24:51;;;;;;;;;;;;;;;;;;2089709;28;19921;-45
2021/09/08 03:25:52;;;;;;;;;;;;;;;;;;2090432;28;19928;-45
2021/09/08 03:26:53;;;;;;;;;;;;;;;;;;2089654;28;20317;-45
2021/09/08 03:27:53;;;;;;;;;;;;;;;;;;2088447;28;19928;-45
2021/09/08 03:28:54;;;;;;;;;;;;;;;;;;2090560;28;19924;-45
2021/09/08 03:29:55;;;;;;;;;;;;;;;;;;2089333;28;19921;-45
2021/09/08 03:30:56;;;;;;;;;;;;;;;;;;2084201;28;20012;-45
2021/09/08 03:31:57;;;;;;;;;;;;;;;;;;2082373;28;19921;-45
2021/09/08 03:32:57;;;;;;;;;;;;;;;;;;2085562;28;19924;-45
2021/09/08 03:33:58;;;;;;;;;;;;;;;;;;2089016;28;19925;-45
2021/09/08 03:34:59;;;;;;;;;;;;;;;;;;2090472;28;19927;-45
2021/09/08 03:36:00;;;;;;;;;;;;;;;;;;2089198;28;19921;-45
2021/09/08 03:37:01;;;;;;;;;;;;;;;;;;2089645;28;20297;-44
2021/09/08 03:38:02;;;;;;;;;;;;;;;;;;2090562;28;19943;-45
2021/09/08 03:39:03;;;;;;;;;;;;;;;;;;2088369;28;19929;-45
2021/09/08 03:40:04;;;;;;;;;;;;;;;;;;2090337;28;19920;-44
2021/09/08 03:41:04;;;;;;;;;;;;;;;;;;2090343;28;19920;-45
2021/09/08 03:42:05;;;;;;;;;;;;;;;;;;2088190;28;19955;-45
2021/09/08 03:43:06;;;;;;;;;;;;;;;;;;2090382;28;20277;-45
2021/09/08 03:44:07;;;;;;;;;;;;;;;;;;2090349;28;19970;-45
2021/09/08 03:45:07;;;;;;;;;;;;;;;;;;2088325;28;19928;-45
2021/09/08 03:46:09;;;;;;;;;;;;;;;;;;2082127;28;19921;-45
2021/09/08 03:47:10;;;;;;;;;;;;;;;;;;2082143;28;20290;-44
2021/09/08 03:48:10;;;;;;;;;;;;;;;;;;2087762;28;19924;-45
2021/09/08 03:49:11;;;;;;;;;;;;;;;;;;2082164;28;19921;-45
2021/09/08 03:50:12;;;;;;;;;;;;;;;;;;2082191;28;19936;-45
2021/09/08 03:51:13;;;;;;;;;;;;;;;;;;2086270;28;19921;-45
2021/09/08 03:52:14;;;;;;;;;;;;;;;;;;2090457;28;20373;-45
2021/09/08 03:53:14;;;;;;;;;;;;;;;;;;2089800;28;19921;-45
2021/09/08 03:54:19;;;;;;;;;;;;;;;;;;2086945;28;20058;-45
2021/09/08 03:55:20;;;;;;;;;;;;;;;;;;2081990;28;19925;-45
2021/09/08 03:56:21;;;;;;;;;;;;;;;;;;2083007;28;19925;-45
2021/09/08 03:57:22;;;;;;;;;;;;;;;;;;2088463;28;19927;-45
2021/09/08 03:58:22;;;;;;;;;;;;;;;;;;2090297;28;20361;-45
2021/09/08 03:59:23;;;;;;;;;;;;;;;;;;2089721;28;19975;-45
2021/09/08 04:00:24;;;;;;;;;;;;;;;;;;2088452;28;19921;-45
2021/09/08 04:01:25;;;;;;;;;;;;;;;;;;2090280;28;19928;-45
2021/09/08 04:02:26;;;;;;;;;;;;;;;;;;2089374;28;19948;-45
2021/09/08 04:03:27;;;;;;;;;;;;;;;;;;2088836;28;19921;-45
2021/09/08 04:04:28;;;;;;;;;;;;;;;;;;2090297;28;20297;-46
2021/09/08 04:05:29;;;;;;;;;;;;;;;;;;2089471;28;20329;-46
2021/09/08 04:06:30;;;;;;;;;;;;;;;;;;2084776;28;20361;-45
2021/09/08 04:07:30;;;;;;;;;;;;;;;;;;2081953;28;19920;-45
2021/09/08 04:08:31;;;;;;;;;;;;;;;;;;2085103;28;19921;-45
2021/09/08 04:09:32;;;;;;;;;;;;;;;;;;2084443;28;19921;-46
2021/09/08 04:10:33;;;;;;;;;;;;;;;;;;2081978;28;19964;-46
2021/09/08 04:11:34;;;;;;;;;;;;;;;;;;2085614;28;20301;-45
2021/09/08 04:12:35;;;;;;;;;;;;;;;;;;2083953;28;19921;-46
2021/09/08 04:13:35;;;;;;;;;;;;;;;;;;2081892;28;19982;-47
2021/09/08 04:14:36;;;;;;;;;;;;;;;;;;2085710;28;19971;-46
2021/09/08 04:15:37;;;;;;;;;;;;;;;;;;2089523;28;20286;-46
2021/09/08 04:16:38;;;;;;;;;;;;;;;;;;2090297;28;20377;-45
2021/09/08 04:17:39;;;;;;;;;;;;;;;;;;2088429;28;20007;-45
2021/09/08 04:18:39;;;;;;;;;;;;;;;;;;2082873;28;19921;-45
2021/09/08 04:19:40;;;;;;;;;;;;;;;;;;2081881;28;19925;-46
2021/09/08 04:20:42;;;;;;;;;;;;;;;;;;2086887;28;19928;-45
2021/09/08 04:21:43;;;;;;;;;;;;;;;;;;2090024;28;19920;-46
2021/09/08 04:22:44;;;;;;;;;;;;;;;;;;2090366;28;19970;-46
2021/09/08 04:23:45;;;;;;;;;;;;;;;;;;2087897;28;19982;-46
2021/09/08 04:24:46;;;;;;;;;;;;;;;;;;2090120;28;20282;-45
2021/09/08 04:25:46;;;;;;;;;;;;;;;;;;2090167;28;19927;-46
2021/09/08 04:26:47;;;;;;;;;;;;;;;;;;2087797;28;19967;-45
2021/09/08 04:27:48;;;;;;;;;;;;;;;;;;2090205;28;20382;-46
2021/09/08 04:28:49;;;;;;;;;;;;;;;;;;2089644;28;20479;-46
2021/09/08 04:29:49;;;;;;;;;;;;;;;;;;2088316;28;19927;-46
2021/09/08 04:30:50;;;;;;;;;;;;;;;;;;2089986;28;19920;-46
2021/09/08 04:31:51;;;;;;;;;;;;;;;;;;2089612;28;19920;-46
2021/09/08 04:32:52;;;;;;;;;;;;;;;;;;2088206;28;19920;-45
2021/09/08 04:33:53;;;;;;;;;;;;;;;;;;2090032;28;20025;-46
2021/09/08 04:34:54;;;;;;;;;;;;;;;;;;2089801;28;19920;-46
2021/09/08 04:35:56;;;;;;;;;;;;;;;;;;2087088;28;20348;-45
2021/09/08 04:37:01;;;;;;;;;;;;;;;;;;2090185;28;19966;-46
2021/09/08 04:38:02;;;;;;;;;;;;;;;;;;2089132;28;20019;-46
2021/09/08 04:39:02;;;;;;;;;;;;;;;;;;2084735;28;19925;-45
2021/09/08 04:40:03;;;;;;;;;;;;;;;;;;2081845;28;19970;-45
2021/09/08 04:41:04;;;;;;;;;;;;;;;;;;2084242;28;20274;-46
2021/09/08 04:42:05;;;;;;;;;;;;;;;;;;2088529;28;19928;-46
2021/09/08 04:43:06;;;;;;;;;;;;;;;;;;2090054;28;19924;-45
2021/09/08 04:44:07;;;;;;;;;;;;;;;;;;2088991;28;19931;-45
2021/09/08 04:45:07;;;;;;;;;;;;;;;;;;2088498;28;19925;-46
2021/09/08 04:46:09;;;;;;;;;;;;;;;;;;2090035;28;20015;-45
2021/09/08 04:47:10;;;;;;;;;;;;;;;;;;2088987;28;20004;-46
2021/09/08 04:48:10;;;;;;;;;;;;;;;;;;2088800;28;19928;-46
2021/09/08 04:49:11;;;;;;;;;;;;;;;;;;2090027;28;19952;-45
2021/09/08 04:50:12;;;;;;;;;;;;;;;;;;2088835;28;20434;-46
2021/09/08 04:51:13;;;;;;;;;;;;;;;;;;2088176;28;19921;-46
2021/09/08 04:52:15;;;;;;;;;;;;;;;;;;2089960;28;20297;-45
2021/09/08 04:53:16;;;;;;;;;;;;;;;;;;2088688;28;20066;-45
2021/09/08 04:54:16;;;;;;;;;;;;;;;;;;2082449;28;19928;-45
2021/09/08 04:55:17;;;;;;;;;;;;;;;;;;2081692;28;19925;-46
2021/09/08 04:56:18;;;;;;;;;;;;;;;;;;2087065;28;19924;-45
2021/09/08 04:57:19;;;;;;;;;;;;;;;;;;2081861;28;19999;-46
2021/09/08 04:58:20;;;;;;;;;;;;;;;;;;2081946;28;19921;-46
2021/09/08 04:59:21;;;;;;;;;;;;;;;;;;2086874;28;20318;-46
2021/09/08 05:00:21;;;;;;;;;;;;;;;;;;2081495;28;19928;-46
2021/09/08 05:01:22;;;;;;;;;;;;;;;;;;2081738;28;19924;-46
2021/09/08 05:02:23;;;;;;;;;;;;;;;;;;2086425;28;20437;-46
2021/09/08 05:03:24;;;;;;;;;;;;;;;;;;2090036;28;19921;-45
2021/09/08 05:04:25;;;;;;;;;;;;;;;;;;2089635;28;19927;-46
2021/09/08 05:05:26;;;;;;;;;;;;;;;;;;2087406;28;19929;-46
2021/09/08 05:06:27;;;;;;;;;;;;;;;;;;2089827;28;19928;-46
2021/09/08 05:07:28;;;;;;;;;;;;;;;;;;2089397;28;19924;-45
2021/09/08 05:08:28;;;;;;;;;;;;;;;;;;2087450;28;19970;-46
2021/09/08 05:09:29;;;;;;;;;;;;;;;;;;2089787;28;19920;-46
2021/09/08 05:10:30;;;;;;;;;;;;;;;;;;2089427;28;19920;-46
2021/09/08 05:11:31;;;;;;;;;;;;;;;;;;2089193;28;19956;-46
2021/09/08 05:12:32;;;;;;;;;;;;;;;;;;2089956;28;20030;-46
2021/09/08 05:13:33;;;;;;;;;;;;;;;;;;2089252;28;19921;-46
2021/09/08 05:14:34;;;;;;;;;;;;;;;;;;2087627;28;20273;-45
2021/09/08 05:15:35;;;;;;;;;;;;;;;;;;2089738;28;19926;-46
2021/09/08 05:16:36;;;;;;;;;;;;;;;;;;2088884;28;19935;-45
2021/09/08 05:17:37;;;;;;;;;;;;;;;;;;2088409;28;19927;-46
2021/09/08 05:18:38;;;;;;;;;;;;;;;;;;2089816;28;19925;-45
2021/09/08 05:19:39;;;;;;;;;;;;;;;;;;2088614;28;19921;-45
2021/09/08 05:20:39;;;;;;;;;;;;;;;;;;2088178;28;19925;-46
2021/09/08 05:21:40;;;;;;;;;;;;;;;;;;2089796;28;19925;-46
2021/09/08 05:22:41;;;;;;;;;;;;;;;;;;2088818;28;19921;-46
2021/09/08 05:23:42;;;;;;;;;;;;;;;;;;2088617;28;20058;-46
2021/09/08 05:24:45;;;;;;;;;;;;;;;;;;2089924;28;19921;-46
2021/09/08 05:25:46;;;;;;;;;;;;;;;;;;2088429;28;20334;-45
2021/09/08 05:26:47;;;;;;;;;;;;;;;;;;2088809;28;19921;-45
2021/09/08 05:27:48;;;;;;;;;;;;;;;;;;2089662;28;19971;-45
2021/09/08 05:28:48;;;;;;;;;;;;;;;;;;2088664;28;19920;-45
2021/09/08 05:29:49;;;;;;;;;;;;;;;;;;2082531;28;19921;-46
2021/09/08 05:30:50;;;;;;;;;;;;;;;;;;2081392;28;19928;-45
2021/09/08 05:31:51;;;;;;;;;;;;;;;;;;2086399;28;19932;-46
2021/09/08 05:32:52;;;;;;;;;;;;;;;;;;2082086;28;19971;-45
2021/09/08 05:33:53;;;;;;;;;;;;;;;;;;2081533;28;20279;-46
2021/09/08 05:34:56;;;;;;;;;;;;;;;;;;2085259;28;19974;-45
2021/09/08 05:35:57;;;;;;;;;;;;;;;;;;2081332;28;20321;-46
2021/09/08 05:36:57;;;;;;;;;;;;;;;;;;2081439;28;19936;-46
2021/09/08 05:37:58;;;;;;;;;;;;;;;;;;2087071;28;20431;-46
2021/09/08 05:38:59;;;;;;;;;;;;;;;;;;2081388;28;19921;-46
2021/09/08 05:40:00;;;;;;;;;;;;;;;;;;2081561;28;19967;-46
2021/09/08 05:41:03;;;;;;;;;;;;;;;;;;2086027;28;19921;-46
2021/09/08 05:42:03;;;;;;;;;;;;;;;;;;2081553;28;20027;-53
2021/09/08 05:43:04;;;;;;;;;;;;;;;;;;2081880;28;19921;-46
2021/09/08 05:44:05;;;;;;;;;;;;;;;;;;2084418;28;19932;-47
2021/09/08 05:45:06;;;;;;;;;;;;;;;;;;2081467;28;19921;-46
2021/09/08 05:46:07;;;;;;;;;;;;;;;;;;2084080;28;19928;-46
2021/09/08 05:47:08;;;;;;;;;;;;;;;;;;2088484;28;20257;-46
2021/09/08 05:48:09;;;;;;;;;;;;;;;;;;2089581;28;19932;-46
2021/09/08 05:49:11;;;;;;;;;;;;;;;;;;2088813;28;19920;-46
2021/09/08 05:50:12;;;;;;;;;;;;;;;;;;2088224;28;20015;-46
2021/09/08 05:51:13;;;;;;;;;;;;;;;;;;2081225;28;19925;-47
2021/09/08 05:52:14;;;;;;;;;;;;;;;;;;2085131;28;19921;-46
2021/09/08 05:53:15;;;;;;;;;;;;;;;;;;2088833;28;19921;-46
2021/09/08 05:54:16;;;;;;;;;;;;;;;;;;2089641;28;19921;-47
2021/09/08 05:55:16;;;;;;;;;;;;;;;;;;2088375;28;20344;-46
2021/09/08 05:56:17;;;;;;;;;;;;;;;;;;2082150;28;19964;-45
2021/09/08 05:57:18;;;;;;;;;;;;;;;;;;2081476;28;19925;-46
2021/09/08 05:58:19;;;;;;;;;;;;;;;;;;2086552;28;19929;-45
2021/09/08 05:59:19;;;;;;;;;;;;;;;;;;2081510;28;19928;-47
2021/09/08 06:00:20;;;;;;;;;;;;;;;;;;2081360;28;20413;-47
2021/09/08 06:01:21;;;;;;;;;;;;;;;;;;2086271;28;19951;-46
2021/09/08 06:02:22;;;;;;;;;;;;;;;;;;2081326;28;20286;-46
2021/09/08 06:03:23;;;;;;;;;;;;;;;;;;2081292;28;20341;-46
2021/09/08 06:04:24;;;;;;;;;;;;;;;;;;2086743;28;19921;-45
2021/09/08 06:05:25;;;;;;;;;;;;;;;;;;2089400;28;19927;-45
2021/09/08 06:06:26;;;;;;;;;;;;;;;;;;2089664;28;20025;-46
2021/09/08 06:07:26;;;;;;;;;;;;;;;;;;2086318;28;19974;-46
2021/09/08 06:08:28;;;;;;;;;;;;;;;;;;2089478;28;19928;-46
2021/09/08 06:09:30;;;;;;;;;;;;;;;;;;2089020;28;19925;-46
2021/09/08 06:10:31;;;;;;;;;;;;;;;;;;2087448;28;20003;-46
2021/09/08 06:11:31;;;;;;;;;;;;;;;;;;2089690;28;20324;-46
2021/09/08 06:12:32;;;;;;;;;;;;;;;;;;2089005;28;20325;-46
2021/09/08 06:13:33;;;;;;;;;;;;;;;;;;2082912;28;19951;-46
2021/09/08 06:14:34;;;;;;;;;;;;;;;;;;2081315;28;19921;-46
2021/09/08 06:15:35;;;;;;;;;;;;;;;;;;2084317;28;19929;-46
2021/09/08 06:16:39;;;;;;;;;;;;;;;;;;2088326;28;19924;-46
2021/09/08 06:17:40;;;;;;;;;;;;;;;;;;2089687;28;19960;-47
2021/09/08 06:18:41;;;;;;;;;;;;;;;;;;2088195;28;19928;-46
2021/09/08 06:19:41;;;;;;;;;;;;;;;;;;2088809;28;20366;-46
2021/09/08 06:20:42;;;;;;;;;;;;;;;;;;2089412;28;19928;-46
2021/09/08 06:21:43;;;;;;;;;;;;;;;;;;2087156;28;19932;-46
2021/09/08 06:22:44;;;;;;;;;;;;;;;;;;2081395;28;20051;-46
2021/09/08 06:23:45;;;;;;;;;;;;;;;;;;2081184;28;20389;-46
2021/09/08 06:24:45;;;;;;;;;;;;;;;;;;2087880;28;20002;-46
2021/09/08 06:25:46;;;;;;;;;;;;;;;;;;2089401;28;19921;-46
2021/09/08 06:26:47;;;;;;;;;;;;;;;;;;2089431;28;19921;-46
2021/09/08 06:27:48;;;;;;;;;;;;;;;;;;2089468;28;19925;-46
2021/09/08 06:28:51;;;;;;;;;;;;;;;;;;2090902;28;19925;-46
2021/09/08 06:29:51;;;;;;;;;;;;;;;;;;2090024;28;20062;-46
2021/09/08 06:30:52;;;;;;;;;;;;;;;;;;2089076;28;19964;-47
2021/09/08 06:31:53;;;;;;;;;;;;;;;;;;2090856;28;20332;-46
2021/09/08 06:32:54;;;;;;;;;;;;;;;;;;2089301;28;20408;-46
2021/09/08 06:33:55;;;;;;;;;;;;;;;;;;2083405;28;19947;-47
2021/09/08 06:34:56;;;;;;;;;;;;;;;;;;2082593;28;19921;-46
2021/09/08 06:35:57;;;;;;;;;;;;;;;;;;2086396;28;19956;-46
2021/09/08 06:36:57;;;;;;;;;;;;;;;;;;2090253;28;20286;-46
2021/09/08 06:37:59;;;;;;;;;;;;;;;;;;2090939;28;19948;-46
2021/09/08 06:39:00;;;;;;;;;;;;;;;;;;2089623;28;20011;-46
2021/09/08 06:40:01;;;;;;;;;;;;;;;;;;2083231;28;19928;-46
2021/09/08 06:41:02;;;;;;;;;;;;;;;;;;2082615;28;19920;-46
2021/09/08 06:42:03;;;;;;;;;;;;;;;;;;2086980;28;20301;-45
2021/09/08 06:43:04;;;;;;;;;;;;;;;;;;2090798;28;19920;-46
2021/09/08 06:44:05;;;;;;;;;;;;;;;;;;2090897;28;19925;-46
2021/09/08 06:45:06;;;;;;;;;;;;;;;;;;2089148;28;19963;-46
2021/09/08 06:46:07;;;;;;;;;;;;;;;;;;2082503;28;19935;-46
2021/09/08 06:47:08;;;;;;;;;;;;;;;;;;2082508;28;19921;-46
2021/09/08 06:48:09;;;;;;;;;;;;;;;;;;2086258;28;19931;-47
2021/09/08 06:49:09;;;;;;;;;;;;;;;;;;2082779;28;19921;-47
2021/09/08 06:50:10;;;;;;;;;;;;;;;;;;2084153;28;19920;-45
2021/09/08 06:51:11;;;;;;;;;;;;;;;;;;2083279;28;19928;-46
2021/09/08 06:52:12;;;;;;;;;;;;;;;;;;2082615;28;20297;-45
2021/09/08 06:53:13;;;;;;;;;;;;;;;;;;2084731;28;19927;-46
2021/09/08 06:54:13;;;;;;;;;;;;;;;;;;2085799;28;19979;-45
2021/09/08 06:55:14;;;;;;;;;;;;;;;;;;2082435;28;19921;-46
2021/09/08 06:56:15;;;;;;;;;;;;;;;;;;2085116;28;20388;-46